Terminal Aerodrome Forecast
Issued by NWS

Home | Current Version | Previous Version | Text Only | Print | Product List | Glossary Off
Versions: 1 2 3 4 5 6 7 8 9 10 11 12 13 14 15 16 17 18

000
FTUS43 KIWX 242300
TAFSBN
TAF
KSBN 242334Z 2500/2524 16012KT P6SM SCT050 BKN100
     FM250600 18014KT P6SM SCT030 BKN060 WS020/19045KT
     FM251000 19016G24KT P6SM VCSH BKN020 WS020/20050KT
     FM251400 22023G30KT P6SM SCT025 BKN040=

USA.gov is the U.S. government's official web portal to all federal, state and local government web resources and services.